EWR weather

Newark Liberty International Airport
Newark, New Jersey, United States

Public forecast

Using degrees Fahrenheit for public forecast. Weather courtesy of forecast.io.

METAR (pilot weather report)

Retrieved 2017/01/20 04:51 UTC (52 minutes ago):

KEWR 200451Z 00000KT 10SM BKN028 OVC200 05/01 A3003

TAF (pilot weather forecast)

Forecast is more than 12 hours old.

Retrieved 2017/01/19 00:45 UTC (1 day ago):

TAF KEWR 192339Z 2000/2106 31009KT P6SM BKN035 FM200300 36004KT P6SM SCT025 SCT250 FM201500 09004KT P6SM SCT020 BKN200 FM201800 14006KT P6SM BKN020 BKN200 FM202100 13006KT 4SM -RA OVC015 FM210100 13008KT 1 1/2SM RA BR OVC010